sensor_id;sensor_type;location;lat;lon;timestamp;P1;P2;P0
13030;PMS7003;6582;54.644;9.760;2022-08-19T00:00:06;53.6;44.6;
13030;PMS7003;6582;54.644;9.760;2022-08-19T00:05:02;59.8;49.8;
13030;PMS7003;6582;54.644;9.760;2022-08-19T00:10:02;59.4;49.6;
13030;PMS7003;6582;54.644;9.760;2022-08-19T00:15:02;58.8;49.3;
13030;PMS7003;6582;54.644;9.760;2022-08-19T00:20:02;58.2;49.1;
13030;PMS7003;6582;54.644;9.760;2022-08-19T00:25:05;58.6;49.4;
13030;PMS7003;6582;54.644;9.760;2022-08-19T00:30:07;51.9;44.1;
13030;PMS7003;6582;54.644;9.760;2022-08-19T00:35:02;51.4;43.8;
13030;PMS7003;6582;54.644;9.760;2022-08-19T00:40:03;51.5;43.8;
13030;PMS7003;6582;54.644;9.760;2022-08-19T00:45:02;51.8;44.0;
13030;PMS7003;6582;54.644;9.760;2022-08-19T00:50:02;52.0;43.9;
13030;PMS7003;6582;54.644;9.760;2022-08-19T00:55:03;52.9;44.2;
13030;PMS7003;6582;54.644;9.760;2022-08-19T01:00:05;53.4;44.5;
13030;PMS7003;6582;54.644;9.760;2022-08-19T01:05:02;53.0;44.5;
13030;PMS7003;6582;54.644;9.760;2022-08-19T01:10:02;52.8;44.3;
13030;PMS7003;6582;54.644;9.760;2022-08-19T01:15:01;52.6;43.9;
13030;PMS7003;6582;54.644;9.760;2022-08-19T01:20:10;52.2;43.8;
13030;PMS7003;6582;54.644;9.760;2022-08-19T01:30:03;52.4;43.5;
13030;PMS7003;6582;54.644;9.760;2022-08-19T01:40:06;52.5;43.7;
13030;PMS7003;6582;54.644;9.760;2022-08-19T01:45:02;52.8;43.9;
13030;PMS7003;6582;54.644;9.760;2022-08-19T01:50:03;53.1;43.8;
13030;PMS7003;6582;54.644;9.760;2022-08-19T01:55:02;53.6;44.2;
13030;PMS7003;6582;54.644;9.760;2022-08-19T02:00:03;53.8;44.4;
13030;PMS7003;6582;54.644;9.760;2022-08-19T02:05:02;54.4;45.0;
13030;PMS7003;6582;54.644;9.760;2022-08-19T02:15:02;54.4;45.6;
13030;PMS7003;6582;54.644;9.760;2022-08-19T02:20:01;54.7;45.5;
13030;PMS7003;6582;54.644;9.760;2022-08-19T02:25:02;55.0;45.6;
13030;PMS7003;6582;54.644;9.760;2022-08-19T02:30:02;55.4;45.9;
13030;PMS7003;6582;54.644;9.760;2022-08-19T02:40:03;55.8;46.1;
13030;PMS7003;6582;54.644;9.760;2022-08-19T02:45:02;56.4;46.9;
13030;PMS7003;6582;54.644;9.760;2022-08-19T02:50:02;55.9;46.7;
13030;PMS7003;6582;54.644;9.760;2022-08-19T02:55:02;55.0;45.9;
13030;PMS7003;6582;54.644;9.760;2022-08-19T03:00:06;55.4;46.0;
13030;PMS7003;6582;54.644;9.760;2022-08-19T03:10:02;54.4;45.2;
13030;PMS7003;6582;54.644;9.760;2022-08-19T03:15:01;55.2;45.5;
13030;PMS7003;6582;54.644;9.760;2022-08-19T03:20:02;55.9;46.1;
13030;PMS7003;6582;54.644;9.760;2022-08-19T03:25:01;55.7;46.2;
13030;PMS7003;6582;54.644;9.760;2022-08-19T03:30:01;59.0;48.7;
13030;PMS7003;6582;54.644;9.760;2022-08-19T03:35:01;60.0;49.1;
13030;PMS7003;6582;54.644;9.760;2022-08-19T03:40:02;60.2;49.3;
13030;PMS7003;6582;54.644;9.760;2022-08-19T03:45:02;60.6;49.2;
13030;PMS7003;6582;54.644;9.760;2022-08-19T03:50:01;61.0;49.2;
13030;PMS7003;6582;54.644;9.760;2022-08-19T03:55:02;58.6;47.0;
13030;PMS7003;6582;54.644;9.760;2022-08-19T04:00:14;58.2;47.1;
13030;PMS7003;6582;54.644;9.760;2022-08-19T04:05:12;58.0;47.0;
13030;PMS7003;6582;54.644;9.760;2022-08-19T04:10:02;57.3;46.9;
13030;PMS7003;6582;54.644;9.760;2022-08-19T04:15:01;57.7;47.4;
13030;PMS7003;6582;54.644;9.760;2022-08-19T04:20:07;56.8;47.3;
13030;PMS7003;6582;54.644;9.760;2022-08-19T04:25:01;57.2;47.5;
13030;PMS7003;6582;54.644;9.760;2022-08-19T04:30:03;57.1;47.4;
13030;PMS7003;6582;54.644;9.760;2022-08-19T04:35:16;58.4;47.8;
13030;PMS7003;6582;54.644;9.760;2022-08-19T04:40:04;57.5;47.2;
13030;PMS7003;6582;54.644;9.760;2022-08-19T04:45:08;57.7;47.2;
13030;PMS7003;6582;54.644;9.760;2022-08-19T05:00:02;58.2;47.5;
13030;PMS7003;6582;54.644;9.760;2022-08-19T05:05:02;57.6;47.3;
13030;PMS7003;6582;54.644;9.760;2022-08-19T05:10:02;58.4;47.7;
13030;PMS7003;6582;54.644;9.760;2022-08-19T05:15:03;58.9;48.0;
13030;PMS7003;6582;54.644;9.760;2022-08-19T05:20:02;58.4;47.6;
13030;PMS7003;6582;54.644;9.760;2022-08-19T05:25:19;63.6;52.4;
13030;PMS7003;6582;54.644;9.760;2022-08-19T05:30:02;64.0;52.5;
13030;PMS7003;6582;54.644;9.760;2022-08-19T05:35:03;65.2;53.0;
13030;PMS7003;6582;54.644;9.760;2022-08-19T05:40:02;65.5;53.6;
13030;PMS7003;6582;54.644;9.760;2022-08-19T05:45:02;66.7;54.0;
13030;PMS7003;6582;54.644;9.760;2022-08-19T05:55:01;61.6;49.4;
13030;PMS7003;6582;54.644;9.760;2022-08-19T06:00:03;61.7;49.7;
13030;PMS7003;6582;54.644;9.760;2022-08-19T06:05:02;61.1;49.4;
13030;PMS7003;6582;54.644;9.760;2022-08-19T06:10:03;65.4;53.3;
13030;PMS7003;6582;54.644;9.760;2022-08-19T06:20:03;65.0;53.1;
13030;PMS7003;6582;54.644;9.760;2022-08-19T06:25:01;65.1;53.1;
13030;PMS7003;6582;54.644;9.760;2022-08-19T06:30:02;64.8;52.9;
13030;PMS7003;6582;54.644;9.760;2022-08-19T06:35:01;65.0;53.2;
13030;PMS7003;6582;54.644;9.760;2022-08-19T06:40:02;60.1;48.9;
13030;PMS7003;6582;54.644;9.760;2022-08-19T06:45:10;60.7;49.4;
13030;PMS7003;6582;54.644;9.760;2022-08-19T06:55:07;60.9;49.5;
13030;PMS7003;6582;54.644;9.760;2022-08-19T07:00:13;61.4;50.1;
13030;PMS7003;6582;54.644;9.760;2022-08-19T07:05:02;61.7;50.2;
13030;PMS7003;6582;54.644;9.760;2022-08-19T07:10:08;62.2;50.4;
13030;PMS7003;6582;54.644;9.760;2022-08-19T07:15:03;61.6;50.4;
13030;PMS7003;6582;54.644;9.760;2022-08-19T07:20:10;62.6;50.9;
13030;PMS7003;6582;54.644;9.760;2022-08-19T07:25:02;62.3;50.5;
13030;PMS7003;6582;54.644;9.760;2022-08-19T07:30:02;62.4;50.5;
13030;PMS7003;6582;54.644;9.760;2022-08-19T07:35:02;62.9;50.8;
13030;PMS7003;6582;54.644;9.760;2022-08-19T07:40:05;63.1;50.9;
13030;PMS7003;6582;54.644;9.760;2022-08-19T07:45:02;61.8;50.2;
13030;PMS7003;6582;54.644;9.760;2022-08-19T07:55:01;61.3;49.7;
13030;PMS7003;6582;54.644;9.760;2022-08-19T08:00:03;60.9;49.4;
13030;PMS7003;6582;54.644;9.760;2022-08-19T08:05:02;60.5;49.1;
13030;PMS7003;6582;54.644;9.760;2022-08-19T08:10:05;60.4;49.0;
13030;PMS7003;6582;54.644;9.760;2022-08-19T08:15:03;61.2;49.4;
13030;PMS7003;6582;54.644;9.760;2022-08-19T08:20:03;61.9;50.0;
13030;PMS7003;6582;54.644;9.760;2022-08-19T08:25:06;62.3;50.5;
13030;PMS7003;6582;54.644;9.760;2022-08-19T08:30:25;63.0;50.7;
13030;PMS7003;6582;54.644;9.760;2022-08-19T08:45:05;64.2;52.0;
13030;PMS7003;6582;54.644;9.760;2022-08-19T08:50:13;67.9;56.5;
13030;PMS7003;6582;54.644;9.760;2022-08-19T08:55:05;67.5;55.2;
13030;PMS7003;6582;54.644;9.760;2022-08-19T09:00:05;66.2;54.0;
13030;PMS7003;6582;54.644;9.760;2022-08-19T09:05:03;65.5;53.6;
13030;PMS7003;6582;54.644;9.760;2022-08-19T09:25:02;62.8;50.6;
13030;PMS7003;6582;54.644;9.760;2022-08-19T09:30:07;63.3;51.2;
13030;PMS7003;6582;54.644;9.760;2022-08-19T09:35:14;64.1;51.8;
13030;PMS7003;6582;54.644;9.760;2022-08-19T09:40:03;64.6;51.7;
13030;PMS7003;6582;54.644;9.760;2022-08-19T09:45:12;64.3;51.5;
13030;PMS7003;6582;54.644;9.760;2022-08-19T09:50:02;64.6;51.7;
13030;PMS7003;6582;54.644;9.760;2022-08-19T09:55:09;64.4;51.6;
13030;PMS7003;6582;54.644;9.760;2022-08-19T10:00:05;64.8;51.9;
13030;PMS7003;6582;54.644;9.760;2022-08-19T10:05:02;64.4;51.9;
13030;PMS7003;6582;54.644;9.760;2022-08-19T10:10:03;64.7;52.0;
13030;PMS7003;6582;54.644;9.760;2022-08-19T10:15:08;64.4;51.8;
13030;PMS7003;6582;54.644;9.760;2022-08-19T10:20:08;64.3;51.7;
13030;PMS7003;6582;54.644;9.760;2022-08-19T10:25:03;63.6;51.0;
13030;PMS7003;6582;54.644;9.760;2022-08-19T10:30:11;63.6;51.0;
13030;PMS7003;6582;54.644;9.760;2022-08-19T10:35:07;62.7;50.5;
13030;PMS7003;6582;54.644;9.760;2022-08-19T10:40:07;63.0;50.4;
13030;PMS7003;6582;54.644;9.760;2022-08-19T10:45:07;62.7;50.1;
13030;PMS7003;6582;54.644;9.760;2022-08-19T10:50:16;62.2;50.0;
13030;PMS7003;6582;54.644;9.760;2022-08-19T10:55:09;62.0;50.0;
13030;PMS7003;6582;54.644;9.760;2022-08-19T11:00:02;62.2;50.4;
13030;PMS7003;6582;54.644;9.760;2022-08-19T11:10:02;62.4;51.1;
13030;PMS7003;6582;54.644;9.760;2022-08-19T11:15:07;62.3;51.2;
13030;PMS7003;6582;54.644;9.760;2022-08-19T11:20:02;62.2;51.2;
13030;PMS7003;6582;54.644;9.760;2022-08-19T11:25:02;62.0;51.1;
13030;PMS7003;6582;54.644;9.760;2022-08-19T11:30:03;64.3;53.3;
13030;PMS7003;6582;54.644;9.760;2022-08-19T11:35:02;64.1;53.0;
13030;PMS7003;6582;54.644;9.760;2022-08-19T11:40:02;64.7;53.3;
13030;PMS7003;6582;54.644;9.760;2022-08-19T11:45:02;64.8;53.0;
13030;PMS7003;6582;54.644;9.760;2022-08-19T11:50:02;65.1;53.1;
13030;PMS7003;6582;54.644;9.760;2022-08-19T11:55:02;62.3;50.3;
13030;PMS7003;6582;54.644;9.760;2022-08-19T12:00:03;62.5;50.4;
13030;PMS7003;6582;54.644;9.760;2022-08-19T12:05:02;61.7;50.0;
13030;PMS7003;6582;54.644;9.760;2022-08-19T12:10:05;61.5;50.0;
13030;PMS7003;6582;54.644;9.760;2022-08-19T12:15:02;61.3;50.0;
13030;PMS7003;6582;54.644;9.760;2022-08-19T12:20:09;61.4;50.2;
13030;PMS7003;6582;54.644;9.760;2022-08-19T12:25:04;61.5;50.6;
13030;PMS7003;6582;54.644;9.760;2022-08-19T12:30:08;61.8;50.6;
13030;PMS7003;6582;54.644;9.760;2022-08-19T12:35:02;61.9;50.8;
13030;PMS7003;6582;54.644;9.760;2022-08-19T12:40:02;61.5;50.5;
13030;PMS7003;6582;54.644;9.760;2022-08-19T12:45:10;61.1;50.2;
13030;PMS7003;6582;54.644;9.760;2022-08-19T12:50:08;60.9;49.8;
13030;PMS7003;6582;54.644;9.760;2022-08-19T12:55:02;60.4;49.4;
13030;PMS7003;6582;54.644;9.760;2022-08-19T13:00:07;60.0;49.1;
13030;PMS7003;6582;54.644;9.760;2022-08-19T13:05:02;60.6;49.3;
13030;PMS7003;6582;54.644;9.760;2022-08-19T13:10:02;60.4;49.3;
13030;PMS7003;6582;54.644;9.760;2022-08-19T13:15:02;60.2;48.9;
13030;PMS7003;6582;54.644;9.760;2022-08-19T13:20:07;60.3;49.3;
13030;PMS7003;6582;54.644;9.760;2022-08-19T13:25:02;61.1;49.6;
13030;PMS7003;6582;54.644;9.760;2022-08-19T13:30:02;61.0;49.8;
13030;PMS7003;6582;54.644;9.760;2022-08-19T13:35:03;61.3;49.8;
13030;PMS7003;6582;54.644;9.760;2022-08-19T13:40:02;61.5;50.1;
13030;PMS7003;6582;54.644;9.760;2022-08-19T13:45:01;60.7;49.4;
13030;PMS7003;6582;54.644;9.760;2022-08-19T13:50:03;59.5;48.7;
13030;PMS7003;6582;54.644;9.760;2022-08-19T13:55:07;59.4;48.5;
13030;PMS7003;6582;54.644;9.760;2022-08-19T14:00:08;59.6;48.6;
13030;PMS7003;6582;54.644;9.760;2022-08-19T14:05:03;59.4;48.5;
13030;PMS7003;6582;54.644;9.760;2022-08-19T14:10:08;61.4;50.2;
13030;PMS7003;6582;54.644;9.760;2022-08-19T14:15:02;62.2;50.8;
13030;PMS7003;6582;54.644;9.760;2022-08-19T14:20:19;61.9;50.7;
13030;PMS7003;6582;54.644;9.760;2022-08-19T14:25:03;62.0;50.6;
13030;PMS7003;6582;54.644;9.760;2022-08-19T14:30:03;61.4;50.3;
13030;PMS7003;6582;54.644;9.760;2022-08-19T14:35:03;60.9;49.3;
13030;PMS7003;6582;54.644;9.760;2022-08-19T14:40:02;61.1;49.3;
13030;PMS7003;6582;54.644;9.760;2022-08-19T14:45:02;61.8;50.1;
13030;PMS7003;6582;54.644;9.760;2022-08-19T14:50:10;61.9;50.6;
13030;PMS7003;6582;54.644;9.760;2022-08-19T14:55:08;67.0;55.1;
13030;PMS7003;6582;54.644;9.760;2022-08-19T15:00:03;67.1;55.7;
13030;PMS7003;6582;54.644;9.760;2022-08-19T15:05:03;66.8;55.7;
13030;PMS7003;6582;54.644;9.760;2022-08-19T15:10:07;66.5;55.0;
13030;PMS7003;6582;54.644;9.760;2022-08-19T15:15:02;66.0;54.5;
13030;PMS7003;6582;54.644;9.760;2022-08-19T15:20:03;62.0;50.8;
13030;PMS7003;6582;54.644;9.760;2022-08-19T15:25:03;61.8;50.4;
13030;PMS7003;6582;54.644;9.760;2022-08-19T15:30:02;61.9;50.4;
13030;PMS7003;6582;54.644;9.760;2022-08-19T15:35:09;62.3;51.0;
13030;PMS7003;6582;54.644;9.760;2022-08-19T15:40:03;62.8;51.3;
13030;PMS7003;6582;54.644;9.760;2022-08-19T15:45:08;62.3;51.0;
13030;PMS7003;6582;54.644;9.760;2022-08-19T15:50:06;62.2;50.8;
13030;PMS7003;6582;54.644;9.760;2022-08-19T15:55:08;62.9;51.6;
13030;PMS7003;6582;54.644;9.760;2022-08-19T16:00:04;63.1;51.8;
13030;PMS7003;6582;54.644;9.760;2022-08-19T16:05:08;63.0;51.9;
13030;PMS7003;6582;54.644;9.760;2022-08-19T16:10:16;63.8;52.8;
13030;PMS7003;6582;54.644;9.760;2022-08-19T16:15:02;64.8;53.9;
13030;PMS7003;6582;54.644;9.760;2022-08-19T16:20:07;64.5;53.4;
13030;PMS7003;6582;54.644;9.760;2022-08-19T16:25:07;64.1;52.9;
13030;PMS7003;6582;54.644;9.760;2022-08-19T16:30:07;64.5;53.4;
13030;PMS7003;6582;54.644;9.760;2022-08-19T16:35:07;64.6;53.6;
13030;PMS7003;6582;54.644;9.760;2022-08-19T16:40:07;64.4;53.3;
13030;PMS7003;6582;54.644;9.760;2022-08-19T16:45:06;64.3;53.2;
13030;PMS7003;6582;54.644;9.760;2022-08-19T16:50:02;63.8;52.8;
13030;PMS7003;6582;54.644;9.760;2022-08-19T16:55:03;63.7;52.3;
13030;PMS7003;6582;54.644;9.760;2022-08-19T17:00:07;63.1;51.8;
13030;PMS7003;6582;54.644;9.760;2022-08-19T17:05:02;62.0;50.8;
13030;PMS7003;6582;54.644;9.760;2022-08-19T17:10:07;61.2;50.1;
13030;PMS7003;6582;54.644;9.760;2022-08-19T17:15:08;60.7;49.8;
13030;PMS7003;6582;54.644;9.760;2022-08-19T17:20:07;58.8;48.6;
13030;PMS7003;6582;54.644;9.760;2022-08-19T17:25:02;57.3;47.4;
13030;PMS7003;6582;54.644;9.760;2022-08-19T17:30:03;56.7;47.0;
13030;PMS7003;6582;54.644;9.760;2022-08-19T17:35:02;59.8;49.8;
13030;PMS7003;6582;54.644;9.760;2022-08-19T17:40:07;60.5;50.2;
13030;PMS7003;6582;54.644;9.760;2022-08-19T17:45:07;62.1;51.1;
13030;PMS7003;6582;54.644;9.760;2022-08-19T17:50:07;62.9;51.7;
13030;PMS7003;6582;54.644;9.760;2022-08-19T17:55:02;63.7;52.3;
13030;PMS7003;6582;54.644;9.760;2022-08-19T18:00:09;61.0;49.8;
13030;PMS7003;6582;54.644;9.760;2022-08-19T18:05:06;60.9;49.7;
13030;PMS7003;6582;54.644;9.760;2022-08-19T18:10:07;60.6;49.8;
13030;PMS7003;6582;54.644;9.760;2022-08-19T18:15:03;61.6;50.3;
13030;PMS7003;6582;54.644;9.760;2022-08-19T18:20:05;61.1;49.7;
13030;PMS7003;6582;54.644;9.760;2022-08-19T18:25:03;60.9;49.4;
13030;PMS7003;6582;54.644;9.760;2022-08-19T18:30:02;60.8;49.4;
13030;PMS7003;6582;54.644;9.760;2022-08-19T18:35:02;60.9;49.4;
13030;PMS7003;6582;54.644;9.760;2022-08-19T18:40:08;60.0;48.8;
13030;PMS7003;6582;54.644;9.760;2022-08-19T18:45:06;60.8;49.6;
13030;PMS7003;6582;54.644;9.760;2022-08-19T18:50:06;60.9;49.8;
13030;PMS7003;6582;54.644;9.760;2022-08-19T18:55:02;61.1;50.0;
13030;PMS7003;6582;54.644;9.760;2022-08-19T19:00:02;61.2;50.1;
13030;PMS7003;6582;54.644;9.760;2022-08-19T19:05:08;61.4;50.2;
13030;PMS7003;6582;54.644;9.760;2022-08-19T19:10:11;61.2;50.1;
13030;PMS7003;6582;54.644;9.760;2022-08-19T19:15:01;61.0;49.8;
13030;PMS7003;6582;54.644;9.760;2022-08-19T19:20:06;60.9;49.7;
13030;PMS7003;6582;54.644;9.760;2022-08-19T19:25:02;60.6;49.5;
13030;PMS7003;6582;54.644;9.760;2022-08-19T19:30:01;59.8;48.9;
13030;PMS7003;6582;54.644;9.760;2022-08-19T19:35:03;59.2;48.6;
13030;PMS7003;6582;54.644;9.760;2022-08-19T19:40:13;58.5;48.3;
13030;PMS7003;6582;54.644;9.760;2022-08-19T19:45:02;57.6;47.6;
13030;PMS7003;6582;54.644;9.760;2022-08-19T19:50:16;56.8;46.9;
13030;PMS7003;6582;54.644;9.760;2022-08-19T19:55:02;56.4;46.8;
13030;PMS7003;6582;54.644;9.760;2022-08-19T20:00:02;55.3;46.0;
13030;PMS7003;6582;54.644;9.760;2022-08-19T20:05:02;54.9;45.4;
13030;PMS7003;6582;54.644;9.760;2022-08-19T20:10:12;54.4;45.1;
13030;PMS7003;6582;54.644;9.760;2022-08-19T20:15:02;59.7;49.6;
13030;PMS7003;6582;54.644;9.760;2022-08-19T20:20:01;59.2;49.1;
13030;PMS7003;6582;54.644;9.760;2022-08-19T20:25:01;58.5;48.8;
13030;PMS7003;6582;54.644;9.760;2022-08-19T20:30:04;57.5;48.4;
13030;PMS7003;6582;54.644;9.760;2022-08-19T20:35:02;56.8;48.0;
13030;PMS7003;6582;54.644;9.760;2022-08-19T20:40:02;50.9;43.3;
13030;PMS7003;6582;54.644;9.760;2022-08-19T20:45:02;51.0;43.6;
13030;PMS7003;6582;54.644;9.760;2022-08-19T20:50:02;50.6;43.3;
13030;PMS7003;6582;54.644;9.760;2022-08-19T20:55:02;49.9;42.7;
13030;PMS7003;6582;54.644;9.760;2022-08-19T21:00:02;49.5;42.1;
13030;PMS7003;6582;54.644;9.760;2022-08-19T21:05:01;48.1;41.0;
13030;PMS7003;6582;54.644;9.760;2022-08-19T21:10:03;47.0;40.2;
13030;PMS7003;6582;54.644;9.760;2022-08-19T21:15:02;48.0;41.0;
13030;PMS7003;6582;54.644;9.760;2022-08-19T21:20:02;49.5;42.2;
13030;PMS7003;6582;54.644;9.760;2022-08-19T21:25:06;50.7;43.4;
13030;PMS7003;6582;54.644;9.760;2022-08-19T21:30:02;52.2;44.6;
13030;PMS7003;6582;54.644;9.760;2022-08-19T21:35:11;53.8;45.7;
13030;PMS7003;6582;54.644;9.760;2022-08-19T21:45:02;52.5;44.8;
13030;PMS7003;6582;54.644;9.760;2022-08-19T21:50:02;51.3;43.8;
13030;PMS7003;6582;54.644;9.760;2022-08-19T21:55:02;51.4;43.6;
13030;PMS7003;6582;54.644;9.760;2022-08-19T22:00:03;50.4;42.9;
13030;PMS7003;6582;54.644;9.760;2022-08-19T22:05:02;50.6;43.0;
13030;PMS7003;6582;54.644;9.760;2022-08-19T22:10:02;54.1;45.7;
13030;PMS7003;6582;54.644;9.760;2022-08-19T22:15:02;56.8;47.7;
13030;PMS7003;6582;54.644;9.760;2022-08-19T22:20:02;58.9;49.3;
13030;PMS7003;6582;54.644;9.760;2022-08-19T22:25:10;61.4;51.2;
13030;PMS7003;6582;54.644;9.760;2022-08-19T22:30:11;61.0;50.8;
13030;PMS7003;6582;54.644;9.760;2022-08-19T22:35:02;59.0;49.2;
13030;PMS7003;6582;54.644;9.760;2022-08-19T22:40:07;58.0;48.5;
13030;PMS7003;6582;54.644;9.760;2022-08-19T22:45:01;56.7;47.6;
13030;PMS7003;6582;54.644;9.760;2022-08-19T22:50:03;54.5;46.0;
13030;PMS7003;6582;54.644;9.760;2022-08-19T22:55:03;57.6;48.6;
13030;PMS7003;6582;54.644;9.760;2022-08-19T23:00:03;58.5;49.1;
13030;PMS7003;6582;54.644;9.760;2022-08-19T23:05:02;59.0;49.6;
13030;PMS7003;6582;54.644;9.760;2022-08-19T23:10:04;57.6;48.7;
13030;PMS7003;6582;54.644;9.760;2022-08-19T23:15:03;57.0;47.7;
13030;PMS7003;6582;54.644;9.760;2022-08-19T23:20:03;52.7;44.4;
13030;PMS7003;6582;54.644;9.760;2022-08-19T23:25:03;49.8;42.4;
13030;PMS7003;6582;54.644;9.760;2022-08-19T23:30:02;47.8;40.8;
13030;PMS7003;6582;54.644;9.760;2022-08-19T23:35:02;47.6;40.6;
13030;PMS7003;6582;54.644;9.760;2022-08-19T23:40:02;48.4;41.6;
13030;PMS7003;6582;54.644;9.760;2022-08-19T23:45:03;49.8;42.7;
13030;PMS7003;6582;54.644;9.760;2022-08-19T23:50:02;52.4;44.4;
13030;PMS7003;6582;54.644;9.760;2022-08-19T23:55:06;52.3;44.5;
